createdAt,value
2023-03-05T00:00:01.701Z,987.76
2023-03-05T00:01:01.660Z,987.77
2023-03-05T00:02:01.648Z,987.78
2023-03-05T00:03:01.645Z,987.79
2023-03-05T00:04:01.623Z,987.80
2023-03-05T00:05:01.623Z,987.79
2023-03-05T00:06:01.630Z,987.79
2023-03-05T00:07:01.603Z,987.77
2023-03-05T00:08:01.575Z,987.77
2023-03-05T00:09:01.560Z,987.77
2023-03-05T00:10:01.574Z,987.78
2023-03-05T00:11:01.547Z,987.79
2023-03-05T00:12:01.574Z,987.80
2023-03-05T00:13:01.542Z,987.81
2023-03-05T00:14:01.526Z,987.82
2023-03-05T00:15:01.516Z,987.82
2023-03-05T00:16:01.485Z,987.82
2023-03-05T00:17:01.472Z,987.81
2023-03-05T00:18:01.498Z,987.80
2023-03-05T00:19:01.461Z,987.80
2023-03-05T00:20:02.580Z,987.78
2023-03-05T00:21:01.433Z,987.78
2023-03-05T00:22:01.439Z,987.78
2023-03-05T00:23:01.419Z,987.77
2023-03-05T00:24:01.437Z,987.77
2023-03-05T00:25:01.413Z,987.77
2023-03-05T00:26:01.412Z,987.78
2023-03-05T00:27:01.400Z,987.79
2023-03-05T00:28:01.378Z,987.79
2023-03-05T00:29:01.375Z,987.78
2023-03-05T00:30:01.397Z,987.77
2023-03-05T00:31:01.395Z,987.74
2023-03-05T00:32:01.407Z,987.74
2023-03-05T00:33:01.371Z,987.73
2023-03-05T00:34:01.311Z,987.72
2023-03-05T00:35:01.297Z,987.71
2023-03-05T00:36:01.318Z,987.69
2023-03-05T00:37:01.281Z,987.68
2023-03-05T00:38:01.271Z,987.66
2023-03-05T00:39:01.307Z,987.64
2023-03-05T00:40:01.310Z,987.63
2023-03-05T00:41:01.266Z,987.62
2023-03-05T00:42:01.232Z,987.61
2023-03-05T00:43:01.244Z,987.60
2023-03-05T00:44:01.206Z,987.59
2023-03-05T00:45:01.238Z,987.56
2023-03-05T00:46:01.198Z,987.55
2023-03-05T00:47:01.185Z,987.53
2023-03-05T00:48:01.319Z,987.52
2023-03-05T00:49:01.183Z,987.50
2023-03-05T00:50:01.168Z,987.49
2023-03-05T00:51:01.201Z,987.47
2023-03-05T00:52:01.131Z,987.46
2023-03-05T00:53:01.130Z,987.45
2023-03-05T00:54:01.107Z,987.44
2023-03-05T00:55:01.113Z,987.42
2023-03-05T00:56:01.088Z,987.41
2023-03-05T00:57:01.108Z,987.39
2023-03-05T00:58:01.067Z,987.37
2023-03-05T00:59:01.063Z,987.36
2023-03-05T01:00:01.046Z,987.35
2023-03-05T01:01:01.046Z,987.33
2023-03-05T01:02:01.108Z,987.32
2023-03-05T01:03:01.007Z,987.31
2023-03-05T01:04:01.002Z,987.29
2023-03-05T01:05:01.048Z,987.27
2023-03-05T01:06:00.993Z,987.27
2023-03-05T01:07:00.982Z,987.26
2023-03-05T01:08:00.998Z,987.26
2023-03-05T01:09:00.952Z,987.26
2023-03-05T01:10:00.945Z,987.26
2023-03-05T01:11:00.936Z,987.26
2023-03-05T01:12:00.918Z,987.25
2023-03-05T01:13:00.903Z,987.23
2023-03-05T01:14:00.897Z,987.22
2023-03-05T01:15:00.888Z,987.21
2023-03-05T01:16:00.876Z,987.19
2023-03-05T01:17:00.851Z,987.19
2023-03-05T01:18:00.861Z,987.19
2023-03-05T01:19:00.849Z,987.18
2023-03-05T01:20:00.843Z,987.16
2023-03-05T01:21:00.829Z,987.17
2023-03-05T01:22:00.819Z,987.16
2023-03-05T01:23:00.816Z,987.16
2023-03-05T01:24:00.800Z,987.15
2023-03-05T01:25:00.809Z,987.14
2023-03-05T01:26:00.789Z,987.12
2023-03-05T01:27:00.769Z,987.11
2023-03-05T01:28:00.755Z,987.10
2023-03-05T01:29:00.752Z,987.09
2023-03-05T01:30:00.727Z,987.07
2023-03-05T01:31:00.725Z,987.05
2023-03-05T01:32:00.729Z,987.05
2023-03-05T01:33:00.701Z,987.05
2023-03-05T01:34:00.687Z,987.03
2023-03-05T01:35:00.688Z,987.01
2023-03-05T01:36:00.674Z,987.00
2023-03-05T01:37:00.687Z,986.99
2023-03-05T01:38:00.660Z,986.97
2023-03-05T01:39:00.639Z,986.96
2023-03-05T01:40:00.671Z,986.95
2023-03-05T01:41:00.618Z,986.94
2023-03-05T01:42:00.668Z,986.92
2023-03-05T01:43:00.639Z,986.91
2023-03-05T01:44:00.580Z,986.89
2023-03-05T01:45:00.569Z,986.88
2023-03-05T01:46:00.626Z,986.89
2023-03-05T01:47:00.555Z,986.89
2023-03-05T01:48:00.596Z,986.86
2023-03-05T01:49:00.534Z,986.81
2023-03-05T01:50:00.542Z,986.80
2023-03-05T01:51:00.522Z,986.78
2023-03-05T01:52:00.518Z,986.78
2023-03-05T01:53:00.478Z,986.79
2023-03-05T01:54:00.506Z,986.79
2023-03-05T01:55:00.462Z,986.79
2023-03-05T01:56:00.456Z,986.78
2023-03-05T01:57:00.448Z,986.80
2023-03-05T01:58:00.442Z,986.83
2023-03-05T01:59:00.475Z,986.85
2023-03-05T02:00:00.439Z,986.86
2023-03-05T02:01:00.466Z,986.86
2023-03-05T02:02:00.454Z,986.85
2023-03-05T02:03:00.403Z,986.85
2023-03-05T02:04:00.484Z,986.85
2023-03-05T02:05:00.405Z,986.83
2023-03-05T02:06:00.384Z,986.82
2023-03-05T02:07:00.359Z,986.81
2023-03-05T02:08:00.327Z,986.81
2023-03-05T02:09:00.319Z,986.81
2023-03-05T02:10:00.316Z,986.80
2023-03-05T02:11:00.329Z,986.80
2023-03-05T02:12:00.305Z,986.81
2023-03-05T02:13:00.293Z,986.80
2023-03-05T02:14:00.287Z,986.78
2023-03-05T02:15:00.279Z,986.77
2023-03-05T02:16:00.307Z,986.77
2023-03-05T02:17:00.266Z,986.77
2023-03-05T02:18:00.281Z,986.76
2023-03-05T02:19:00.254Z,986.76
2023-03-05T02:20:00.213Z,986.75
2023-03-05T02:21:00.201Z,986.74
2023-03-05T02:22:00.247Z,986.72
2023-03-05T02:23:00.190Z,986.72
2023-03-05T02:24:00.190Z,986.72
2023-03-05T02:25:00.177Z,986.71
2023-03-05T02:26:00.171Z,986.70
2023-03-05T02:27:00.172Z,986.68
2023-03-05T02:28:00.191Z,986.66
2023-03-05T02:29:00.160Z,986.65
2023-03-05T02:30:00.210Z,986.64
2023-03-05T02:31:00.124Z,986.65
2023-03-05T02:32:00.246Z,986.65
2023-03-05T02:33:00.103Z,986.64
2023-03-05T02:34:00.127Z,986.63
2023-03-05T02:35:00.110Z,986.62
2023-03-05T02:36:00.177Z,986.60
2023-03-05T02:37:00.044Z,986.58
2023-03-05T02:38:00.048Z,986.56
2023-03-05T02:39:00.030Z,986.54
2023-03-05T02:40:00.076Z,986.51
2023-03-05T02:41:00.018Z,986.51
2023-03-05T02:42:00.040Z,986.51
2023-03-05T02:42:59.994Z,986.50
2023-03-05T02:43:59.998Z,986.48
2023-03-05T02:44:59.974Z,986.46
2023-03-05T02:46:00.133Z,986.45
2023-03-05T02:48:27.027Z,986.45
2023-03-05T02:48:31.913Z,986.46
2023-03-05T02:49:31.908Z,986.46
2023-03-05T02:50:31.916Z,986.47
2023-03-05T02:51:31.988Z,986.47
2023-03-05T02:52:31.918Z,986.46
2023-03-05T02:53:31.913Z,986.46
2023-03-05T02:54:31.859Z,986.45
2023-03-05T02:55:31.862Z,986.43
2023-03-05T02:56:31.838Z,986.42
2023-03-05T02:57:31.841Z,986.40
2023-03-05T02:58:31.889Z,986.38
2023-03-05T02:59:31.846Z,986.37
2023-03-05T03:00:31.791Z,986.35
2023-03-05T03:01:31.855Z,986.35
2023-03-05T03:02:31.811Z,986.34
2023-03-05T03:03:31.891Z,986.34
2023-03-05T03:04:31.758Z,986.34
2023-03-05T03:05:31.768Z,986.35
2023-03-05T03:06:31.750Z,986.36
2023-03-05T03:07:31.749Z,986.36
2023-03-05T03:08:31.750Z,986.37
2023-03-05T03:09:31.728Z,986.34
2023-03-05T03:10:31.701Z,986.33
2023-03-05T03:11:31.707Z,986.32
2023-03-05T03:12:31.673Z,986.31
2023-03-05T03:13:31.661Z,986.30
2023-03-05T03:14:31.682Z,986.30
2023-03-05T03:15:31.658Z,986.31
2023-03-05T03:16:31.657Z,986.29
2023-03-05T03:17:31.620Z,986.27
2023-03-05T03:18:31.621Z,986.26
2023-03-05T03:19:31.625Z,986.24
2023-03-05T03:20:31.641Z,986.23
2023-03-05T03:21:31.605Z,986.22
2023-03-05T03:22:31.597Z,986.22
2023-03-05T03:23:31.592Z,986.22
2023-03-05T03:24:31.570Z,986.22
2023-03-05T03:25:31.567Z,986.20
2023-03-05T03:26:32.043Z,986.20
2023-03-05T03:27:31.537Z,986.20
2023-03-05T03:28:31.521Z,986.21
2023-03-05T03:29:31.514Z,986.21
2023-03-05T03:30:31.511Z,986.21
2023-03-05T03:31:31.501Z,986.19
2023-03-05T03:32:31.570Z,986.18
2023-03-05T03:33:31.468Z,986.18
2023-03-05T03:34:31.462Z,986.18
2023-03-05T03:35:31.490Z,986.17
2023-03-05T03:36:31.452Z,986.18
2023-03-05T03:37:31.441Z,986.17
2023-03-05T03:38:31.456Z,986.17
2023-03-05T03:39:31.432Z,986.16
2023-03-05T03:40:31.394Z,986.15
2023-03-05T03:41:31.397Z,986.15
2023-03-05T03:42:31.371Z,986.15
2023-03-05T03:43:31.379Z,986.13
2023-03-05T03:44:31.390Z,986.12
2023-03-05T03:45:31.362Z,986.10
2023-03-05T03:46:31.462Z,986.09
2023-03-05T03:47:31.347Z,986.09
2023-03-05T03:48:31.328Z,986.07
2023-03-05T03:49:31.314Z,986.06
2023-03-05T03:50:31.368Z,986.05
2023-03-05T03:51:31.315Z,986.05
2023-03-05T03:52:31.276Z,986.04
2023-03-05T03:53:31.293Z,986.03
2023-03-05T03:54:31.266Z,986.03
2023-03-05T03:55:31.264Z,986.02
2023-03-05T03:56:31.281Z,986.01
2023-03-05T03:57:31.248Z,986.01
2023-03-05T03:58:31.229Z,986.00
2023-03-05T03:59:31.216Z,985.99
2023-03-05T04:00:31.224Z,985.99
2023-03-05T04:01:31.204Z,985.98
2023-03-05T04:02:31.255Z,985.96
2023-03-05T04:03:31.183Z,985.94
2023-03-05T04:04:31.189Z,985.92
2023-03-05T04:05:31.150Z,985.90
2023-03-05T04:06:31.140Z,985.89
2023-03-05T04:07:31.140Z,985.87
2023-03-05T04:08:31.158Z,985.86
2023-03-05T04:09:31.135Z,985.86
2023-03-05T04:10:31.105Z,985.85
2023-03-05T04:11:31.099Z,985.84
2023-03-05T04:12:31.074Z,985.82
2023-03-05T04:13:31.079Z,985.82
2023-03-05T04:14:31.109Z,985.80
2023-03-05T04:15:31.063Z,985.78
2023-03-05T04:16:31.044Z,985.77
2023-03-05T04:17:31.027Z,985.77
2023-03-05T04:18:32.530Z,985.76
2023-03-05T04:19:31.011Z,985.75
2023-03-05T04:20:31.045Z,985.74
2023-03-05T04:21:31.008Z,985.74
2023-03-05T04:22:30.983Z,985.74
2023-03-05T04:23:30.977Z,985.73
2023-03-05T04:24:30.964Z,985.72
2023-03-05T04:25:30.960Z,985.70
2023-03-05T04:26:30.984Z,985.70
2023-03-05T04:27:30.934Z,985.70
2023-03-05T04:28:30.926Z,985.70
2023-03-05T04:29:30.905Z,985.70
2023-03-05T04:30:30.893Z,985.70
2023-03-05T04:31:30.923Z,985.69
2023-03-05T04:32:31.358Z,985.70
2023-03-05T04:33:30.879Z,985.69
2023-03-05T04:34:30.855Z,985.69
2023-03-05T04:35:30.872Z,985.70
2023-03-05T04:36:30.840Z,985.70
2023-03-05T04:37:30.839Z,985.70
2023-03-05T04:38:30.843Z,985.70
2023-03-05T04:39:30.798Z,985.70
2023-03-05T04:40:30.792Z,985.69
2023-03-05T04:41:30.786Z,985.68
2023-03-05T04:42:30.765Z,985.67
2023-03-05T04:43:30.774Z,985.66
2023-03-05T04:44:30.769Z,985.66
2023-03-05T04:45:30.736Z,985.65
2023-03-05T04:46:30.805Z,985.65
2023-03-05T04:47:30.745Z,985.65
2023-03-05T04:48:30.712Z,985.65
2023-03-05T04:49:30.711Z,985.65
2023-03-05T04:50:30.723Z,985.64
2023-03-05T04:51:30.703Z,985.64
2023-03-05T04:52:30.670Z,985.63
2023-03-05T04:53:30.679Z,985.62
2023-03-05T04:54:30.660Z,985.61
2023-03-05T04:55:30.662Z,985.61
2023-03-05T04:56:30.660Z,985.62
2023-03-05T04:57:30.621Z,985.62
2023-03-05T04:58:30.605Z,985.61
2023-03-05T04:59:30.622Z,985.61
2023-03-05T05:00:30.593Z,985.60
2023-03-05T05:01:30.707Z,985.57
2023-03-05T05:02:30.655Z,985.55
2023-03-05T05:03:30.556Z,985.53
2023-03-05T05:04:30.542Z,985.53
2023-03-05T05:05:30.534Z,985.52
2023-03-05T05:06:30.538Z,985.51
2023-03-05T05:07:30.522Z,985.50
2023-03-05T05:08:30.522Z,985.50
2023-03-05T05:09:30.504Z,985.49
2023-03-05T05:10:30.490Z,985.49
2023-03-05T05:11:30.488Z,985.50
2023-03-05T05:12:30.479Z,985.50
2023-03-05T05:13:30.464Z,985.49
2023-03-05T05:14:30.490Z,985.48
2023-03-05T05:15:30.448Z,985.46
2023-03-05T05:16:30.472Z,985.45
2023-03-05T05:17:30.426Z,985.42
2023-03-05T05:18:30.425Z,985.39
2023-03-05T05:19:30.484Z,985.38
2023-03-05T05:20:30.427Z,985.39
2023-03-05T05:21:30.370Z,985.40
2023-03-05T05:22:30.366Z,985.42
2023-03-05T05:23:30.348Z,985.44
2023-03-05T05:24:30.336Z,985.45
2023-03-05T05:25:30.345Z,985.47
2023-03-05T05:26:30.351Z,985.48
2023-03-05T05:27:30.326Z,985.51
2023-03-05T05:28:30.305Z,985.49
2023-03-05T05:29:30.317Z,985.51
2023-03-05T05:30:30.301Z,985.51
2023-03-05T05:31:30.323Z,985.53
2023-03-05T05:32:30.343Z,985.53
2023-03-05T05:33:30.265Z,985.53
2023-03-05T05:34:30.255Z,985.53
2023-03-05T05:35:30.272Z,985.51
2023-03-05T05:36:30.226Z,985.51
2023-03-05T05:37:30.213Z,985.51
2023-03-05T05:38:30.608Z,985.51
2023-03-05T05:39:30.190Z,985.52
2023-03-05T05:40:30.199Z,985.52
2023-03-05T05:41:30.175Z,985.53
2023-03-05T05:42:30.176Z,985.51
2023-03-05T05:43:30.170Z,985.51
2023-03-05T05:44:30.200Z,985.51
2023-03-05T05:45:30.324Z,985.49
2023-03-05T05:46:30.185Z,985.48
2023-03-05T05:47:30.129Z,985.47
2023-03-05T05:48:30.126Z,985.47
2023-03-05T05:49:30.107Z,985.48
2023-03-05T05:50:30.126Z,985.46
2023-03-05T05:51:30.093Z,985.47
2023-03-05T05:52:30.095Z,985.48
2023-03-05T05:53:30.065Z,985.47
2023-03-05T05:54:30.061Z,985.47
2023-03-05T05:55:30.057Z,985.46
2023-03-05T05:56:30.043Z,985.47
2023-03-05T05:57:30.073Z,985.46
2023-03-05T05:58:30.014Z,985.47
2023-03-05T05:59:30.008Z,985.47
2023-03-05T06:00:30.009Z,985.48
2023-03-05T06:01:30.000Z,985.49
2023-03-05T06:02:29.990Z,985.50
2023-03-05T06:03:29.992Z,985.51
2023-03-05T06:04:29.950Z,985.51
2023-03-05T06:05:29.934Z,985.50
2023-03-05T06:06:29.935Z,985.51
2023-03-05T06:07:29.920Z,985.52
2023-03-05T06:08:29.965Z,985.52
2023-03-05T06:09:29.897Z,985.52
2023-03-05T06:10:29.903Z,985.52
2023-03-05T06:11:29.891Z,985.51
2023-03-05T06:12:29.882Z,985.50
2023-03-05T06:13:29.873Z,985.52
2023-03-05T06:14:29.893Z,985.51
2023-03-05T06:15:29.839Z,985.52
2023-03-05T06:16:29.871Z,985.53
2023-03-05T06:17:31.028Z,985.53
2023-03-05T06:18:29.810Z,985.54
2023-03-05T06:19:29.795Z,985.54
2023-03-05T06:20:29.830Z,985.55
2023-03-05T06:21:29.772Z,985.55
2023-03-05T06:22:29.786Z,985.55
2023-03-05T06:23:29.767Z,985.54
2023-03-05T06:24:29.774Z,985.55
2023-03-05T06:25:29.778Z,985.55
2023-03-05T06:26:29.755Z,985.56
2023-03-05T06:27:29.735Z,985.56
2023-03-05T06:28:29.731Z,985.56
2023-03-05T06:29:29.705Z,985.57
2023-03-05T06:30:29.772Z,985.57
2023-03-05T06:31:29.710Z,985.57
2023-03-05T06:32:29.725Z,985.58
2023-03-05T06:33:29.640Z,985.58
2023-03-05T06:34:29.650Z,985.57
2023-03-05T06:35:29.683Z,985.57
2023-03-05T06:36:29.641Z,985.56
2023-03-05T06:37:29.653Z,985.55
2023-03-05T06:38:29.619Z,985.54
2023-03-05T06:39:29.629Z,985.54
2023-03-05T06:40:29.591Z,985.54
2023-03-05T06:41:29.583Z,985.54
2023-03-05T06:42:29.569Z,985.53
2023-03-05T06:43:29.789Z,985.54
2023-03-05T06:44:29.551Z,985.54
2023-03-05T06:45:29.527Z,985.53
2023-03-05T06:46:29.531Z,985.53
2023-03-05T06:47:29.528Z,985.53
2023-03-05T06:48:29.521Z,985.55
2023-03-05T06:49:29.530Z,985.54
2023-03-05T06:50:29.495Z,985.54
2023-03-05T06:51:29.477Z,985.54
2023-03-05T06:52:29.478Z,985.56
2023-03-05T06:53:29.462Z,985.56
2023-03-05T06:54:29.489Z,985.57
2023-03-05T06:55:29.427Z,985.56
2023-03-05T06:56:29.429Z,985.56
2023-03-05T06:57:29.419Z,985.58
2023-03-05T06:58:29.397Z,985.56
2023-03-05T06:59:29.392Z,985.54
2023-03-05T07:00:29.408Z,985.52
2023-03-05T07:01:29.500Z,985.50
2023-03-05T07:02:29.435Z,985.48
2023-03-05T07:03:29.358Z,985.46
2023-03-05T07:04:29.361Z,985.45
2023-03-05T07:05:29.430Z,985.43
2023-03-05T07:06:29.399Z,985.44
2023-03-05T07:07:29.316Z,985.42
2023-03-05T07:08:29.307Z,985.40
2023-03-05T07:09:29.282Z,985.38
2023-03-05T07:10:29.279Z,985.39
2023-03-05T07:11:29.283Z,985.39
2023-03-05T07:12:29.306Z,985.39
2023-03-05T07:13:29.253Z,985.38
2023-03-05T07:14:29.256Z,985.39
2023-03-05T07:15:29.375Z,985.38
2023-03-05T07:16:29.232Z,985.37
2023-03-05T07:17:29.223Z,985.37
2023-03-05T07:18:29.262Z,985.35
2023-03-05T07:19:29.195Z,985.34
2023-03-05T07:20:29.184Z,985.33
2023-03-05T07:21:29.163Z,985.36
2023-03-05T07:22:29.166Z,985.34
2023-03-05T07:23:29.154Z,985.36
2023-03-05T07:24:29.185Z,985.35
2023-03-05T07:25:29.124Z,985.33
2023-03-05T07:26:29.132Z,985.33
2023-03-05T07:27:29.118Z,985.33
2023-03-05T07:28:29.109Z,985.32
2023-03-05T07:29:29.105Z,985.32
2023-03-05T07:30:29.198Z,985.31
2023-03-05T07:31:29.072Z,985.27
2023-03-05T07:32:29.143Z,985.25
2023-03-05T07:33:29.070Z,985.24
2023-03-05T07:34:29.049Z,985.23
2023-03-05T07:35:29.028Z,985.23
2023-03-05T07:36:29.060Z,985.24
2023-03-05T07:37:29.002Z,985.25
2023-03-05T07:38:29.011Z,985.20
2023-03-05T07:39:29.006Z,985.21
2023-03-05T07:40:28.999Z,985.22
2023-03-05T07:41:28.980Z,985.21
2023-03-05T07:42:29.068Z,985.23
2023-03-05T07:43:28.956Z,985.25
2023-03-05T07:44:28.951Z,985.26
2023-03-05T07:45:28.929Z,985.26
2023-03-05T07:46:29.021Z,985.25
2023-03-05T07:47:28.913Z,985.25
2023-03-05T07:48:28.941Z,985.25
2023-03-05T07:49:28.884Z,985.24
2023-03-05T07:50:28.891Z,985.24
2023-03-05T07:51:28.883Z,985.24
2023-03-05T07:52:28.879Z,985.28
2023-03-05T07:53:28.874Z,985.27
2023-03-05T07:54:28.885Z,985.27
2023-03-05T07:55:28.842Z,985.26
2023-03-05T07:56:28.831Z,985.24
2023-03-05T07:57:28.868Z,985.24
2023-03-05T07:58:28.828Z,985.24
2023-03-05T07:59:28.817Z,985.23
2023-03-05T08:00:28.806Z,985.24
2023-03-05T08:01:28.779Z,985.25
2023-03-05T08:02:28.825Z,985.26
2023-03-05T08:03:28.775Z,985.24
2023-03-05T08:04:28.785Z,985.23
2023-03-05T08:05:28.727Z,985.25
2023-03-05T08:06:28.729Z,985.25
2023-03-05T08:07:28.726Z,985.24
2023-03-05T08:08:28.716Z,985.25
2023-03-05T08:09:28.734Z,985.21
2023-03-05T08:10:28.719Z,985.22
2023-03-05T08:11:28.803Z,985.22
2023-03-05T08:12:28.659Z,985.20
2023-03-05T08:13:28.652Z,985.19
2023-03-05T08:14:28.672Z,985.19
2023-03-05T08:15:28.642Z,985.19
2023-03-05T08:16:28.637Z,985.19
2023-03-05T08:17:28.620Z,985.21
2023-03-05T08:18:28.620Z,985.19
2023-03-05T08:19:28.597Z,985.19
2023-03-05T08:20:28.627Z,985.18
2023-03-05T08:21:28.582Z,985.18
2023-03-05T08:22:28.582Z,985.17
2023-03-05T08:23:28.544Z,985.19
2023-03-05T08:24:28.535Z,985.19
2023-03-05T08:25:28.539Z,985.20
2023-03-05T08:26:28.559Z,985.19
2023-03-05T08:27:28.512Z,985.19
2023-03-05T08:28:28.508Z,985.17
2023-03-05T08:29:28.480Z,985.17
2023-03-05T08:30:28.486Z,985.15
2023-03-05T08:31:28.544Z,985.15
2023-03-05T08:32:28.674Z,985.15
2023-03-05T08:33:31.184Z,985.15
2023-03-05T08:34:28.452Z,985.14
2023-03-05T08:35:28.473Z,985.13
2023-03-05T08:36:28.436Z,985.12
2023-03-05T08:37:28.416Z,985.10
2023-03-05T08:38:28.394Z,985.10
2023-03-05T08:39:28.365Z,985.09
2023-03-05T08:40:28.407Z,985.08
2023-03-05T08:41:28.344Z,985.08
2023-03-05T08:42:28.339Z,985.06
2023-03-05T08:43:28.373Z,985.04
2023-03-05T08:44:28.330Z,985.04
2023-03-05T08:45:28.323Z,985.03
2023-03-05T08:46:28.334Z,985.02
2023-03-05T08:47:28.288Z,984.98
2023-03-05T08:48:28.303Z,985.03
2023-03-05T08:49:28.486Z,985.00
2023-03-05T08:50:28.286Z,984.99
2023-03-05T08:51:28.241Z,984.95
2023-03-05T08:52:28.246Z,984.96
2023-03-05T08:53:28.237Z,984.93
2023-03-05T08:54:28.227Z,984.91
2023-03-05T08:55:28.246Z,984.93
2023-03-05T08:56:28.195Z,984.97
2023-03-05T08:57:28.192Z,984.94
2023-03-05T08:58:28.173Z,984.90
2023-03-05T08:59:28.171Z,984.90
2023-03-05T09:00:28.170Z,984.89
2023-03-05T09:01:28.324Z,984.87
2023-03-05T09:02:28.216Z,984.85
2023-03-05T09:03:28.128Z,984.84
2023-03-05T09:04:28.126Z,984.84
2023-03-05T09:05:28.113Z,984.87
2023-03-05T09:06:28.125Z,984.87
2023-03-05T09:07:28.122Z,984.88
2023-03-05T09:08:28.087Z,984.88
2023-03-05T09:09:28.079Z,984.89
2023-03-05T09:10:28.063Z,984.87
2023-03-05T09:11:28.062Z,984.89
2023-03-05T09:12:28.056Z,984.86
2023-03-05T09:13:28.089Z,984.85
2023-03-05T09:14:28.050Z,984.88
2023-03-05T09:15:28.021Z,984.84
2023-03-05T09:16:28.109Z,984.82
2023-03-05T09:17:28.001Z,984.81
2023-03-05T09:18:27.985Z,984.77
2023-03-05T09:19:28.001Z,984.83
2023-03-05T09:20:27.978Z,984.74
2023-03-05T09:21:27.970Z,984.76
2023-03-05T09:22:27.964Z,984.75
2023-03-05T09:23:27.927Z,984.75
2023-03-05T09:24:27.946Z,984.75
2023-03-05T09:25:27.936Z,984.69
2023-03-05T09:26:27.941Z,984.68
2023-03-05T09:27:27.906Z,984.67
2023-03-05T09:28:27.891Z,984.64
2023-03-05T09:29:27.888Z,984.64
2023-03-05T09:30:27.867Z,984.64
2023-03-05T09:31:27.912Z,984.64
2023-03-05T09:32:27.892Z,984.65
2023-03-05T09:33:27.840Z,984.68
2023-03-05T09:34:27.839Z,984.65
2023-03-05T09:35:27.826Z,984.62
2023-03-05T09:36:27.809Z,984.64
2023-03-05T09:37:27.804Z,984.61
2023-03-05T09:38:27.781Z,984.61
2023-03-05T09:39:27.762Z,984.61
2023-03-05T09:40:27.772Z,984.60
2023-03-05T09:41:27.739Z,984.57
2023-03-05T09:42:27.742Z,984.60
2023-03-05T09:43:27.754Z,984.55
2023-03-05T09:44:27.721Z,984.54
2023-03-05T09:45:27.758Z,984.51
2023-03-05T09:46:27.713Z,984.50
2023-03-05T09:47:27.691Z,984.48
2023-03-05T09:48:27.713Z,984.49
2023-03-05T09:49:27.676Z,984.51
2023-03-05T09:50:27.656Z,984.52
2023-03-05T09:51:27.666Z,984.48
2023-03-05T09:52:27.626Z,984.47
2023-03-05T09:53:27.625Z,984.47
2023-03-05T09:54:27.644Z,984.49
2023-03-05T09:55:27.595Z,984.47
2023-03-05T09:56:27.588Z,984.46
2023-03-05T09:57:27.593Z,984.46
2023-03-05T09:58:27.582Z,984.46
2023-03-05T09:59:27.603Z,984.43
2023-03-05T10:00:27.579Z,984.43
2023-03-05T10:01:27.558Z,984.42
2023-03-05T10:02:27.537Z,984.40
2023-03-05T10:03:27.579Z,984.42
2023-03-05T10:04:27.663Z,984.44
2023-03-05T10:05:27.509Z,984.38
2023-03-05T10:06:27.540Z,984.40
2023-03-05T10:07:27.481Z,984.43
2023-03-05T10:08:27.478Z,984.39
2023-03-05T10:09:27.460Z,984.40
2023-03-05T10:10:27.473Z,984.41
2023-03-05T10:11:27.446Z,984.40
2023-03-05T10:12:27.475Z,984.41
2023-03-05T10:13:27.430Z,984.43
2023-03-05T10:14:27.425Z,984.39
2023-03-05T10:15:27.425Z,984.41
2023-03-05T10:16:27.420Z,984.38
2023-03-05T10:17:27.392Z,984.39
2023-03-05T10:18:27.386Z,984.42
2023-03-05T10:19:27.419Z,984.39
2023-03-05T10:20:27.354Z,984.40
2023-03-05T10:21:27.353Z,984.36
2023-03-05T10:22:27.336Z,984.35
2023-03-05T10:23:27.315Z,984.33
2023-03-05T10:24:27.315Z,984.34
2023-03-05T10:25:27.326Z,984.31
2023-03-05T10:26:27.300Z,984.29
2023-03-05T10:27:27.361Z,984.26
2023-03-05T10:28:27.269Z,984.26
2023-03-05T10:29:27.266Z,984.28
2023-03-05T10:30:27.247Z,984.31
2023-03-05T10:31:27.335Z,984.28
2023-03-05T10:32:27.255Z,984.25
2023-03-05T10:33:27.236Z,984.24
2023-03-05T10:34:27.211Z,984.22
2023-03-05T10:35:27.256Z,984.23
2023-03-05T10:36:27.188Z,984.19
2023-03-05T10:37:27.214Z,984.18
2023-03-05T10:38:27.182Z,984.19
2023-03-05T10:39:27.168Z,984.16
2023-03-05T10:40:27.154Z,984.18
2023-03-05T10:41:27.137Z,984.14
2023-03-05T10:42:28.629Z,984.12
2023-03-05T10:43:27.535Z,984.11
2023-03-05T10:44:27.125Z,984.10
2023-03-05T10:45:27.113Z,984.09
2023-03-05T10:46:27.090Z,984.11
2023-03-05T10:47:27.092Z,984.12
2023-03-05T10:48:27.058Z,984.12
2023-03-05T10:49:27.092Z,984.12
2023-03-05T10:50:27.059Z,984.06
2023-03-05T10:51:27.039Z,984.08
2023-03-05T10:52:27.047Z,984.08
2023-03-05T10:53:27.022Z,984.05
2023-03-05T10:54:27.010Z,984.08
2023-03-05T10:55:27.043Z,984.07
2023-03-05T10:56:27.226Z,984.06
2023-03-05T10:57:26.992Z,984.05
2023-03-05T10:58:26.979Z,984.02
2023-03-05T10:59:26.963Z,984.00
2023-03-05T11:00:26.955Z,984.09
2023-03-05T11:01:27.006Z,984.01
2023-03-05T11:02:27.008Z,983.97
2023-03-05T11:03:26.919Z,984.07
2023-03-05T11:04:26.914Z,984.01
2023-03-05T11:05:26.900Z,984.00
2023-03-05T11:06:26.885Z,983.96
2023-03-05T11:07:26.916Z,983.94
2023-03-05T11:08:26.865Z,983.90
2023-03-05T11:09:26.862Z,983.87
2023-03-05T11:10:26.873Z,983.86
2023-03-05T11:11:26.860Z,983.84
2023-03-05T11:12:26.837Z,983.84
2023-03-05T11:13:26.845Z,983.91
2023-03-05T11:14:26.803Z,983.87
2023-03-05T11:15:26.808Z,983.83
2023-03-05T11:16:26.923Z,983.78
2023-03-05T11:17:26.786Z,983.84
2023-03-05T11:18:26.795Z,983.81
2023-03-05T11:19:26.750Z,983.78
2023-03-05T11:20:26.733Z,983.76
2023-03-05T11:21:26.724Z,983.73
2023-03-05T11:22:26.724Z,983.78
2023-03-05T11:23:26.727Z,983.75
2023-03-05T11:24:26.741Z,983.70
2023-03-05T11:25:26.706Z,983.67
2023-03-05T11:26:26.681Z,983.65
2023-03-05T11:27:26.676Z,983.67
2023-03-05T11:28:32.934Z,983.64
2023-03-05T11:29:26.688Z,983.64
2023-03-05T11:30:26.648Z,983.60
2023-03-05T11:31:26.679Z,983.62
2023-03-05T11:32:26.660Z,983.56
2023-03-05T11:33:26.604Z,983.57
2023-03-05T11:34:26.600Z,983.55
2023-03-05T11:35:26.657Z,983.54
2023-03-05T11:36:26.607Z,983.52
2023-03-05T11:37:26.585Z,983.51
2023-03-05T11:38:26.563Z,983.54
2023-03-05T11:39:26.607Z,983.51
2023-03-05T11:40:26.602Z,983.52
2023-03-05T11:41:26.542Z,983.51
2023-03-05T11:42:26.524Z,983.50
2023-03-05T11:43:26.518Z,983.51
2023-03-05T11:44:26.491Z,983.48
2023-03-05T11:45:26.499Z,983.50
2023-03-05T11:46:26.520Z,983.48
2023-03-05T11:47:26.463Z,983.47
2023-03-05T11:48:26.462Z,983.43
2023-03-05T11:49:26.445Z,983.41
2023-03-05T11:50:26.434Z,983.46
2023-03-05T11:51:26.441Z,983.49
2023-03-05T11:52:26.446Z,983.40
2023-03-05T11:53:26.439Z,983.39
2023-03-05T11:54:26.416Z,983.40
2023-03-05T11:55:26.383Z,983.37
2023-03-05T11:56:26.374Z,983.41
2023-03-05T11:57:26.443Z,983.38
2023-03-05T11:58:26.376Z,983.36
2023-03-05T11:59:26.363Z,983.37
2023-03-05T12:00:26.350Z,983.33
2023-03-05T12:01:26.341Z,983.31
2023-03-05T12:02:26.420Z,983.30
2023-03-05T12:03:26.396Z,983.29
2023-03-05T12:04:26.312Z,983.29
2023-03-05T12:05:26.319Z,983.27
2023-03-05T12:06:26.293Z,983.24
2023-03-05T12:07:28.253Z,983.24
2023-03-05T12:08:26.304Z,983.20
2023-03-05T12:09:26.254Z,983.21
2023-03-05T12:10:26.285Z,983.17
2023-03-05T12:11:26.236Z,983.17
2023-03-05T12:12:26.248Z,983.17
2023-03-05T12:13:26.218Z,983.14
2023-03-05T12:14:26.252Z,983.13
2023-03-05T12:15:26.213Z,983.12
2023-03-05T12:16:26.244Z,983.08
2023-03-05T12:17:26.194Z,983.07
2023-03-05T12:18:26.172Z,983.05
2023-03-05T12:19:26.172Z,983.01
2023-03-05T12:20:26.248Z,983.00
2023-03-05T12:21:26.187Z,982.95
2023-03-05T12:22:26.126Z,982.96
2023-03-05T12:23:26.116Z,982.95
2023-03-05T12:24:28.387Z,982.93
2023-03-05T12:25:26.110Z,982.93
2023-03-05T12:26:26.089Z,982.95
2023-03-05T12:27:26.099Z,982.92
2023-03-05T12:28:26.062Z,982.90